createdAt,value
2018-07-07T00:00:59.877Z,320.00
2018-07-07T00:02:00.660Z,319.00
2018-07-07T00:03:01.440Z,319.00
2018-07-07T00:04:04.423Z,319.00
2018-07-07T00:05:01.993Z,319.00
2018-07-07T00:06:03.788Z,320.00
2018-07-07T00:07:04.567Z,320.00
2018-07-07T00:08:05.335Z,319.00
2018-07-07T00:09:06.124Z,319.00
2018-07-07T00:10:06.882Z,320.00
2018-07-07T00:11:07.698Z,319.00
2018-07-07T00:12:08.456Z,319.00
2018-07-07T00:13:09.225Z,319.00
2018-07-07T00:14:09.998Z,319.00
2018-07-07T00:15:10.771Z,319.00
2018-07-07T00:16:11.572Z,319.00
2018-07-07T00:17:12.343Z,319.00
2018-07-07T00:18:13.126Z,319.00
2018-07-07T00:19:13.897Z,319.00
2018-07-07T00:20:14.672Z,319.00
2018-07-07T00:21:15.471Z,319.00
2018-07-07T00:22:16.242Z,319.00
2018-07-07T00:23:17.023Z,319.00
2018-07-07T00:24:17.795Z,319.00
2018-07-07T00:25:18.567Z,319.00
2018-07-07T00:26:19.363Z,319.00
2018-07-07T00:27:20.148Z,319.00
2018-07-07T00:28:20.922Z,319.00
2018-07-07T00:29:21.682Z,319.00
2018-07-07T00:30:22.468Z,319.00
2018-07-07T00:31:23.253Z,319.00
2018-07-07T00:32:24.030Z,319.00
2018-07-07T00:33:24.800Z,320.00
2018-07-07T00:34:25.577Z,319.00
2018-07-07T00:35:26.351Z,319.00
2018-07-07T00:36:27.149Z,319.00
2018-07-07T00:37:27.928Z,319.00
2018-07-07T00:38:28.696Z,319.00
2018-07-07T00:39:29.475Z,319.00
2018-07-07T00:40:30.247Z,319.00
2018-07-07T00:41:31.048Z,319.00
2018-07-07T00:42:31.828Z,320.00
2018-07-07T00:43:32.597Z,319.00
2018-07-07T00:44:33.377Z,319.00
2018-07-07T00:45:34.150Z,319.00
2018-07-07T00:46:34.949Z,319.00
2018-07-07T00:47:35.725Z,319.00
2018-07-07T00:48:36.501Z,319.00
2018-07-07T00:49:37.269Z,319.00
2018-07-07T00:50:38.053Z,319.00
2018-07-07T00:51:38.865Z,320.00
2018-07-07T00:52:40.090Z,319.00
2018-07-07T01:04:07.395Z,319.00
2018-07-07T01:05:07.094Z,319.00
2018-07-07T01:06:08.874Z,319.00
2018-07-07T01:07:09.644Z,319.00
2018-07-07T01:08:10.444Z,320.00
2018-07-07T01:09:11.219Z,319.00
2018-07-07T01:10:11.993Z,320.00
2018-07-07T01:11:12.781Z,319.00
2018-07-07T01:12:13.525Z,319.00
2018-07-07T01:13:14.320Z,319.00
2018-07-07T01:14:17.855Z,319.00
2018-07-07T01:15:15.615Z,319.00
2018-07-07T01:16:16.389Z,319.00
2018-07-07T01:17:17.164Z,319.00
2018-07-07T01:18:17.983Z,319.00
2018-07-07T01:19:18.747Z,320.00
2018-07-07T01:20:19.529Z,319.00
2018-07-07T01:21:20.290Z,319.00
2018-07-07T01:22:21.067Z,319.00
2018-07-07T01:23:21.868Z,319.00
2018-07-07T01:24:23.645Z,319.00
2018-07-07T01:25:23.417Z,319.00
2018-07-07T01:26:24.189Z,319.00
2018-07-07T01:27:24.965Z,319.00
2018-07-07T01:28:25.770Z,319.00
2018-07-07T01:29:26.546Z,319.00
2018-07-07T01:30:27.322Z,319.00
2018-07-07T01:31:28.089Z,319.00
2018-07-07T01:32:28.864Z,319.00
2018-07-07T01:33:29.663Z,319.00
2018-07-07T01:34:31.431Z,319.00
2018-07-07T01:35:31.211Z,319.00
2018-07-07T01:36:31.975Z,320.00
2018-07-07T01:37:32.747Z,319.00
2018-07-07T01:38:33.572Z,319.00
2018-07-07T01:39:34.319Z,319.00
2018-07-07T01:40:35.096Z,319.00
2018-07-07T01:41:35.868Z,319.00
2018-07-07T01:42:36.642Z,319.00
2018-07-07T01:43:37.438Z,319.00
2018-07-07T01:44:38.214Z,319.00
2018-07-07T01:45:38.985Z,320.00
2018-07-07T01:46:39.760Z,319.00
2018-07-07T01:47:40.533Z,319.00
2018-07-07T01:48:41.361Z,319.00
2018-07-07T01:49:41.099Z,320.00
2018-07-07T01:50:42.873Z,319.00
2018-07-07T01:51:43.647Z,319.00
2018-07-07T01:52:44.422Z,319.00
2018-07-07T01:53:45.221Z,319.00
2018-07-07T01:54:45.996Z,320.00
2018-07-07T01:55:46.770Z,319.00
2018-07-07T01:56:47.542Z,319.00
2018-07-07T01:57:48.318Z,319.00
2018-07-07T01:58:49.114Z,319.00
2018-07-07T01:59:49.887Z,319.00
2018-07-07T02:00:50.658Z,319.00
2018-07-07T02:01:51.436Z,319.00
2018-07-07T02:02:52.206Z,320.00
2018-07-07T02:03:53.009Z,320.00
2018-07-07T02:04:53.775Z,319.00
2018-07-07T02:05:54.549Z,319.00
2018-07-07T02:06:55.319Z,319.00
2018-07-07T02:07:56.091Z,319.00
2018-07-07T02:08:56.891Z,319.00
2018-07-07T02:09:57.666Z,319.00
2018-07-07T02:10:58.446Z,319.00
2018-07-07T02:11:59.223Z,319.00
2018-07-07T02:12:59.991Z,320.00
2018-07-07T02:14:00.800Z,319.00
2018-07-07T02:15:01.576Z,319.00
2018-07-07T02:16:02.345Z,319.00
2018-07-07T02:17:03.118Z,319.00
2018-07-07T02:18:03.896Z,320.00
2018-07-07T02:19:04.691Z,319.00
2018-07-07T02:20:05.474Z,319.00
2018-07-07T02:21:06.251Z,319.00
2018-07-07T02:22:07.022Z,320.00
2018-07-07T02:23:07.791Z,319.00
2018-07-07T02:24:08.597Z,320.00
2018-07-07T02:25:09.371Z,319.00
2018-07-07T02:26:10.147Z,319.00
2018-07-07T02:27:10.920Z,320.00
2018-07-07T02:28:11.694Z,319.00
2018-07-07T02:29:12.494Z,319.00
2018-07-07T02:30:13.267Z,320.00
2018-07-07T02:31:14.066Z,319.00
2018-07-07T02:32:14.831Z,319.00
2018-07-07T02:33:15.599Z,319.00
2018-07-07T02:34:16.400Z,319.00
2018-07-07T02:35:17.174Z,319.00
2018-07-07T02:36:17.947Z,320.00
2018-07-07T02:37:18.718Z,319.00
2018-07-07T02:38:19.501Z,320.00
2018-07-07T02:39:20.292Z,320.00
2018-07-07T02:40:21.071Z,319.00
2018-07-07T02:41:21.846Z,319.00
2018-07-07T02:42:22.624Z,320.00
2018-07-07T02:43:23.399Z,320.00
2018-07-07T02:44:24.197Z,319.00
2018-07-07T02:45:24.978Z,320.00
2018-07-07T02:46:25.841Z,320.00
2018-07-07T02:47:25.529Z,319.00
2018-07-07T02:48:27.300Z,320.00
2018-07-07T02:49:28.100Z,320.00
2018-07-07T02:50:28.874Z,320.00
2018-07-07T02:51:29.645Z,320.00
2018-07-07T02:52:30.428Z,320.00
2018-07-07T02:53:31.609Z,320.00
2018-07-07T02:56:27.991Z,320.00
2018-07-07T02:57:28.755Z,320.00
2018-07-07T02:58:29.517Z,320.00
2018-07-07T02:59:30.295Z,320.00
2018-07-07T03:00:31.093Z,320.00
2018-07-07T03:01:31.860Z,320.00
2018-07-07T03:02:32.636Z,320.00
2018-07-07T03:03:33.406Z,320.00
2018-07-07T03:04:34.183Z,320.00
2018-07-07T03:05:34.989Z,320.00
2018-07-07T03:06:36.774Z,320.00
2018-07-07T03:07:36.519Z,320.00
2018-07-07T03:08:37.286Z,320.00
2018-07-07T03:09:38.070Z,320.00
2018-07-07T03:10:38.865Z,320.00
2018-07-07T03:11:39.644Z,321.00
2018-07-07T03:12:40.414Z,320.00
2018-07-07T03:13:41.183Z,320.00
2018-07-07T03:14:41.956Z,320.00
2018-07-07T03:15:42.762Z,320.00
2018-07-07T03:16:43.523Z,320.00
2018-07-07T03:17:44.296Z,320.00
2018-07-07T03:18:45.070Z,320.00
2018-07-07T03:19:45.852Z,320.00
2018-07-07T03:20:46.640Z,320.00
2018-07-07T03:21:47.433Z,320.00
2018-07-07T03:22:48.189Z,320.00
2018-07-07T03:23:48.961Z,320.00
2018-07-07T03:24:49.729Z,320.00
2018-07-07T03:25:50.523Z,321.00
2018-07-07T03:26:51.295Z,320.00
2018-07-07T03:27:52.076Z,320.00
2018-07-07T03:28:52.838Z,321.00
2018-07-07T03:29:53.613Z,320.00
2018-07-07T03:30:54.441Z,320.00
2018-07-07T03:31:55.202Z,320.00
2018-07-07T03:32:55.969Z,320.00
2018-07-07T03:33:56.743Z,320.00
2018-07-07T03:34:57.515Z,321.00
2018-07-07T03:35:58.316Z,321.00
2018-07-07T03:36:59.090Z,321.00
2018-07-07T03:37:59.918Z,321.00
2018-07-07T03:38:59.639Z,321.00
2018-07-07T03:40:01.416Z,320.00
2018-07-07T03:41:02.220Z,321.00
2018-07-07T03:42:02.987Z,321.00
2018-07-07T03:43:03.767Z,321.00
2018-07-07T03:44:04.534Z,321.00
2018-07-07T03:45:05.309Z,321.00
2018-07-07T03:46:06.115Z,321.00
2018-07-07T03:47:06.879Z,321.00
2018-07-07T03:48:07.644Z,322.00
2018-07-07T03:49:08.418Z,321.00
2018-07-07T03:50:09.200Z,321.00
2018-07-07T03:51:09.991Z,321.00
2018-07-07T03:52:10.763Z,321.00
2018-07-07T03:53:11.541Z,321.00
2018-07-07T03:54:12.325Z,321.00
2018-07-07T03:55:13.090Z,321.00
2018-07-07T03:56:13.890Z,321.00
2018-07-07T03:57:14.665Z,321.00
2018-07-07T03:58:15.438Z,321.00
2018-07-07T03:59:16.213Z,321.00
2018-07-07T04:00:16.987Z,321.00
2018-07-07T04:01:17.798Z,321.00
2018-07-07T04:02:18.573Z,321.00
2018-07-07T04:03:19.333Z,321.00
2018-07-07T04:04:20.098Z,321.00
2018-07-07T04:05:20.874Z,321.00
2018-07-07T04:06:21.677Z,322.00
2018-07-07T04:07:22.524Z,321.00
2018-07-07T04:08:22.217Z,321.00
2018-07-07T04:09:23.986Z,321.00
2018-07-07T04:10:24.768Z,321.00
2018-07-07T04:11:25.565Z,321.00
2018-07-07T04:12:26.342Z,321.00
2018-07-07T04:13:27.113Z,322.00
2018-07-07T04:14:27.884Z,321.00
2018-07-07T04:15:28.656Z,322.00
2018-07-07T04:16:29.457Z,322.00
2018-07-07T04:17:30.231Z,322.00
2018-07-07T04:18:31.014Z,322.00
2018-07-07T04:19:31.773Z,324.00
2018-07-07T04:20:32.541Z,322.00
2018-07-07T04:21:33.364Z,322.00
2018-07-07T04:22:34.115Z,322.00
2018-07-07T04:23:34.897Z,324.00
2018-07-07T04:24:35.666Z,322.00
2018-07-07T04:25:36.443Z,325.00
2018-07-07T04:26:37.246Z,322.00
2018-07-07T04:27:38.015Z,324.00
2018-07-07T04:28:38.805Z,324.00
2018-07-07T04:29:39.569Z,324.00
2018-07-07T04:30:40.361Z,324.00
2018-07-07T04:31:41.142Z,324.00
2018-07-07T04:32:41.925Z,324.00
2018-07-07T04:33:42.697Z,325.00
2018-07-07T04:34:43.469Z,325.00
2018-07-07T04:35:44.243Z,324.00
2018-07-07T04:36:45.043Z,324.00
2018-07-07T04:37:45.816Z,324.00
2018-07-07T04:38:46.593Z,324.00
2018-07-07T04:39:47.366Z,324.00
2018-07-07T04:40:48.137Z,324.00
2018-07-07T04:41:48.932Z,324.00
2018-07-07T04:42:49.708Z,324.00
2018-07-07T04:43:50.480Z,325.00
2018-07-07T04:44:52.670Z,324.00
2018-07-07T04:45:51.947Z,324.00
2018-07-07T04:46:51.123Z,324.00
2018-07-07T04:47:51.321Z,325.00
2018-07-07T04:52:47.969Z,325.00
2018-07-07T04:53:48.737Z,325.00
2018-07-07T04:54:49.508Z,325.00
2018-07-07T04:55:50.281Z,325.00
2018-07-07T04:56:51.052Z,325.00
2018-07-07T04:57:51.873Z,325.00
2018-07-07T04:58:52.627Z,326.00
2018-07-07T04:59:53.397Z,326.00
2018-07-07T05:00:54.174Z,325.00
2018-07-07T05:01:54.937Z,325.00
2018-07-07T05:02:55.744Z,325.00
2018-07-07T05:03:56.520Z,326.00
2018-07-07T05:04:57.307Z,326.00
2018-07-07T05:05:58.074Z,326.00
2018-07-07T05:06:58.847Z,325.00
2018-07-07T05:07:59.646Z,326.00
2018-07-07T05:09:00.416Z,326.00
2018-07-07T05:10:01.187Z,326.00
2018-07-07T05:11:01.966Z,326.00
2018-07-07T05:12:02.731Z,326.00
2018-07-07T05:13:03.526Z,326.00
2018-07-07T05:14:04.304Z,326.00
2018-07-07T05:15:05.074Z,326.00
2018-07-07T05:16:05.850Z,327.00
2018-07-07T05:17:06.618Z,327.00
2018-07-07T05:18:07.422Z,327.00
2018-07-07T05:19:08.193Z,327.00
2018-07-07T05:20:08.966Z,327.00
2018-07-07T05:21:09.738Z,327.00
2018-07-07T05:22:10.512Z,327.00
2018-07-07T05:23:11.305Z,327.00
2018-07-07T05:24:12.080Z,327.00
2018-07-07T05:25:12.853Z,327.00
2018-07-07T05:26:13.621Z,327.00
2018-07-07T05:27:14.394Z,327.00
2018-07-07T05:28:15.188Z,327.00
2018-07-07T05:29:15.961Z,327.00
2018-07-07T05:30:16.745Z,327.00
2018-07-07T05:31:17.508Z,327.00
2018-07-07T05:32:18.289Z,326.00
2018-07-07T05:33:19.079Z,327.00
2018-07-07T05:34:19.851Z,327.00
2018-07-07T05:35:20.627Z,327.00
2018-07-07T05:36:21.396Z,327.00
2018-07-07T05:37:22.219Z,327.00
2018-07-07T05:38:21.969Z,327.00
2018-07-07T05:39:23.746Z,327.00
2018-07-07T05:40:24.520Z,327.00
2018-07-07T05:41:25.289Z,327.00
2018-07-07T05:42:26.065Z,327.00
2018-07-07T05:43:26.871Z,327.00
2018-07-07T05:44:27.634Z,327.00
2018-07-07T05:45:28.420Z,327.00
2018-07-07T05:46:29.188Z,327.00
2018-07-07T05:47:29.966Z,328.00
2018-07-07T05:48:30.761Z,327.00
2018-07-07T05:49:31.540Z,327.00
2018-07-07T05:50:32.307Z,327.00
2018-07-07T05:51:33.079Z,327.00
2018-07-07T05:52:33.849Z,327.00
2018-07-07T05:53:34.659Z,327.00
2018-07-07T05:54:35.438Z,328.00
2018-07-07T05:55:36.205Z,328.00
2018-07-07T05:56:36.998Z,328.00
2018-07-07T05:57:37.771Z,328.00
2018-07-07T05:58:38.572Z,328.00
2018-07-07T05:59:39.350Z,328.00
2018-07-07T06:00:40.128Z,328.00
2018-07-07T06:01:40.903Z,328.00
2018-07-07T06:02:41.700Z,328.00
2018-07-07T06:03:42.472Z,328.00
2018-07-07T06:04:43.241Z,328.00
2018-07-07T06:05:44.017Z,329.00
2018-07-07T06:06:44.807Z,328.00
2018-07-07T06:07:45.588Z,328.00
2018-07-07T06:08:46.368Z,328.00
2018-07-07T06:09:47.165Z,328.00
2018-07-07T06:10:47.941Z,328.00
2018-07-07T06:11:48.693Z,328.00
2018-07-07T06:12:49.471Z,328.00
2018-07-07T06:13:50.274Z,329.00
2018-07-07T06:14:51.057Z,329.00
2018-07-07T06:15:51.820Z,329.00
2018-07-07T06:16:52.596Z,328.00
2018-07-07T06:17:53.372Z,328.00
2018-07-07T06:18:54.168Z,329.00
2018-07-07T06:19:54.936Z,329.00
2018-07-07T06:20:55.721Z,329.00
2018-07-07T06:21:56.482Z,329.00
2018-07-07T06:22:57.268Z,329.00
2018-07-07T06:23:58.056Z,329.00
2018-07-07T06:24:58.827Z,329.00
2018-07-07T06:25:59.613Z,329.00
2018-07-07T06:27:00.377Z,330.00
2018-07-07T06:28:01.151Z,329.00
2018-07-07T06:29:01.953Z,330.00
2018-07-07T06:30:02.734Z,330.00
2018-07-07T06:31:03.501Z,330.00
2018-07-07T06:32:04.299Z,330.00
2018-07-07T06:33:05.053Z,330.00
2018-07-07T06:34:05.852Z,330.00
2018-07-07T06:35:06.631Z,329.00
2018-07-07T06:36:07.414Z,330.00
2018-07-07T06:37:08.180Z,330.00
2018-07-07T06:38:08.951Z,330.00
2018-07-07T06:39:09.747Z,330.00
2018-07-07T06:40:10.520Z,331.00
2018-07-07T06:41:11.713Z,331.00
2018-07-07T06:42:11.916Z,331.00
2018-07-07T06:43:11.139Z,330.00
2018-07-07T06:44:11.362Z,330.00
2018-07-07T06:56:30.625Z,332.00
2018-07-07T06:57:31.389Z,331.00
2018-07-07T06:58:32.164Z,332.00
2018-07-07T06:59:34.012Z,332.00
2018-07-07T07:00:32.755Z,331.00
2018-07-07T07:01:34.527Z,332.00
2018-07-07T07:02:35.300Z,332.00
2018-07-07T07:03:36.072Z,333.00
2018-07-07T07:04:36.880Z,332.00
2018-07-07T07:05:37.642Z,332.00
2018-07-07T07:06:38.639Z,333.00
2018-07-07T07:07:38.354Z,333.00
2018-07-07T07:08:40.126Z,333.00
2018-07-07T07:09:40.935Z,333.00
2018-07-07T07:10:41.704Z,333.00
2018-07-07T07:11:42.491Z,332.00
2018-07-07T07:12:43.262Z,333.00
2018-07-07T07:13:46.192Z,332.00
2018-07-07T07:14:43.831Z,333.00
2018-07-07T07:15:45.608Z,332.00
2018-07-07T07:16:46.409Z,332.00
2018-07-07T07:17:47.148Z,332.00
2018-07-07T07:18:48.164Z,333.00
2018-07-07T07:19:53.954Z,334.00
2018-07-07T07:20:51.637Z,333.00
2018-07-07T07:21:56.711Z,333.00
2018-07-07T07:22:50.269Z,333.00
2018-07-07T07:24:32.898Z,334.00
2018-07-07T07:24:51.854Z,333.00
2018-07-07T07:25:56.314Z,334.00
2018-07-07T07:26:56.206Z,334.00
2018-07-07T07:27:54.974Z,333.00
2018-07-07T07:28:55.822Z,334.00
2018-07-07T07:30:01.566Z,336.00
2018-07-07T07:32:17.698Z,336.00
2018-07-07T07:33:06.792Z,336.00
2018-07-07T07:33:58.524Z,336.00
2018-07-07T07:37:43.124Z,352.00
2018-07-07T07:38:42.442Z,351.00
2018-07-07T07:39:52.341Z,352.00
2018-07-07T07:40:41.879Z,353.00
2018-07-07T07:41:49.661Z,354.00
2018-07-07T07:43:05.275Z,355.00
2018-07-07T07:45:02.129Z,355.00
2018-07-07T07:45:23.987Z,355.00
2018-07-07T07:45:54.751Z,354.00
2018-07-07T07:47:10.292Z,356.00
2018-07-07T07:47:49.715Z,355.00
2018-07-07T08:00:04.153Z,364.00
2018-07-07T08:01:00.478Z,364.00
2018-07-07T08:02:20.773Z,365.00
2018-07-07T08:03:13.343Z,362.00
2018-07-07T08:05:12.075Z,365.00
2018-07-07T08:06:12.530Z,366.00
2018-07-07T08:06:15.104Z,363.00
2018-07-07T08:12:44.024Z,369.00
2018-07-07T09:42:11.364Z,394.00
2018-07-07T10:06:38.489Z,345.00
2018-07-07T10:08:24.734Z,358.00
2018-07-07T10:22:04.597Z,393.00
2018-07-07T10:33:44.858Z,388.00
2018-07-07T10:38:50.628Z,342.00
2018-07-07T10:39:56.395Z,348.00
2018-07-07T10:45:31.683Z,380.00
2018-07-07T10:55:49.049Z,397.00
2018-07-07T10:57:02.322Z,397.00
2018-07-07T10:58:49.118Z,397.00
2018-07-07T10:59:51.910Z,397.00
2018-07-07T11:04:43.898Z,398.00
2018-07-07T11:06:45.643Z,396.00
2018-07-07T11:37:31.296Z,397.00
2018-07-07T11:38:31.148Z,396.00
2018-07-07T11:40:22.003Z,396.00
2018-07-07T11:53:30.525Z,336.00
2018-07-07T11:53:43.243Z,337.00
2018-07-07T11:59:45.560Z,343.00
2018-07-07T12:01:31.489Z,338.00
2018-07-07T12:35:01.687Z,357.00
2018-07-07T12:48:03.407Z,374.00
2018-07-07T12:55:00.971Z,373.00
2018-07-07T13:01:26.526Z,367.00
2018-07-07T13:07:21.899Z,367.00
2018-07-07T13:22:21.964Z,360.00
2018-07-07T13:23:51.367Z,356.00
2018-07-07T13:29:56.516Z,336.00
2018-07-07T13:44:41.658Z,334.00
2018-07-07T15:58:35.401Z,327.00
2018-07-07T16:36:24.422Z,327.00
2018-07-07T21:30:58.929Z,319.00
2018-07-07T21:52:35.605Z,319.00
2018-07-07T21:53:37.964Z,319.00
2018-07-07T21:55:02.938Z,319.00
2018-07-07T21:56:37.732Z,320.00
2018-07-07T21:57:41.762Z,319.00
2018-07-07T21:58:18.565Z,319.00
2018-07-07T22:50:49.720Z,319.00
2018-07-07T22:51:23.134Z,319.00
2018-07-07T23:00:29.677Z,320.00
